sensor_id;sensor_type;location;lat;lon;timestamp;temperature;humidity
58983;DHT22;44771;49.982;8.560;2023-07-20T00:02:42;18.50;88.60
58983;DHT22;44771;49.982;8.560;2023-07-20T00:07:45;18.40;88.00
58983;DHT22;44771;49.982;8.560;2023-07-20T00:12:47;18.40;88.90
58983;DHT22;44771;49.982;8.560;2023-07-20T00:17:49;18.40;88.60
58983;DHT22;44771;49.982;8.560;2023-07-20T00:22:52;18.30;88.80
58983;DHT22;44771;49.982;8.560;2023-07-20T00:27:54;18.30;90.10
58983;DHT22;44771;49.982;8.560;2023-07-20T00:32:56;18.10;90.30
58983;DHT22;44771;49.982;8.560;2023-07-20T00:37:59;18.00;90.50
58983;DHT22;44771;49.982;8.560;2023-07-20T00:43:01;17.90;90.90
58983;DHT22;44771;49.982;8.560;2023-07-20T00:48:04;17.70;91.10
58983;DHT22;44771;49.982;8.560;2023-07-20T00:53:08;17.60;91.60
58983;DHT22;44771;49.982;8.560;2023-07-20T00:58:10;17.50;91.90
58983;DHT22;44771;49.982;8.560;2023-07-20T01:03:12;17.40;92.80
58983;DHT22;44771;49.982;8.560;2023-07-20T01:08:26;17.20;93.90
58983;DHT22;44771;49.982;8.560;2023-07-20T01:13:29;17.00;94.80
58983;DHT22;44771;49.982;8.560;2023-07-20T01:18:31;16.70;95.40
58983;DHT22;44771;49.982;8.560;2023-07-20T01:24:18;16.50;97.00
58983;DHT22;44771;49.982;8.560;2023-07-20T01:29:36;16.20;98.90
58983;DHT22;44771;49.982;8.560;2023-07-20T01:34:48;15.90;99.60
58983;DHT22;44771;49.982;8.560;2023-07-20T01:39:51;15.50;99.70
58983;DHT22;44771;49.982;8.560;2023-07-20T01:44:53;15.10;99.90
58983;DHT22;44771;49.982;8.560;2023-07-20T01:49:56;15.10;99.90
58983;DHT22;44771;49.982;8.560;2023-07-20T01:54:58;14.90;99.90
58983;DHT22;44771;49.982;8.560;2023-07-20T02:00:00;14.80;99.90
58983;DHT22;44771;49.982;8.560;2023-07-20T02:05:04;14.70;99.90
58983;DHT22;44771;49.982;8.560;2023-07-20T02:10:06;14.70;99.90
58983;DHT22;44771;49.982;8.560;2023-07-20T02:15:09;14.50;99.90
58983;DHT22;44771;49.982;8.560;2023-07-20T02:20:13;14.40;99.90
58983;DHT22;44771;49.982;8.560;2023-07-20T02:25:14;14.00;99.90
58983;DHT22;44771;49.982;8.560;2023-07-20T02:30:16;13.60;99.90
58983;DHT22;44771;49.982;8.560;2023-07-20T02:35:19;13.40;99.90
58983;DHT22;44771;49.982;8.560;2023-07-20T02:40:21;13.20;99.90
58983;DHT22;44771;49.982;8.560;2023-07-20T02:45:23;13.10;99.90
58983;DHT22;44771;49.982;8.560;2023-07-20T02:50:26;12.90;99.90
58983;DHT22;44771;49.982;8.560;2023-07-20T02:55:28;13.10;99.90
58983;DHT22;44771;49.982;8.560;2023-07-20T03:00:30;13.10;99.90
58983;DHT22;44771;49.982;8.560;2023-07-20T03:05:33;13.00;99.90
58983;DHT22;44771;49.982;8.560;2023-07-20T03:10:38;13.00;99.90
58983;DHT22;44771;49.982;8.560;2023-07-20T03:15:40;13.00;99.90
58983;DHT22;44771;49.982;8.560;2023-07-20T03:20:43;13.10;99.90
58983;DHT22;44771;49.982;8.560;2023-07-20T03:25:45;13.10;99.90
58983;DHT22;44771;49.982;8.560;2023-07-20T03:30:53;13.10;99.90
58983;DHT22;44771;49.982;8.560;2023-07-20T03:35:56;13.10;99.90
58983;DHT22;44771;49.982;8.560;2023-07-20T03:40:59;13.00;99.90
58983;DHT22;44771;49.982;8.560;2023-07-20T03:46:01;12.90;99.90
58983;DHT22;44771;49.982;8.560;2023-07-20T03:51:04;12.50;99.90
58983;DHT22;44771;49.982;8.560;2023-07-20T03:56:06;12.20;99.90
58983;DHT22;44771;49.982;8.560;2023-07-20T04:01:08;12.10;99.90
58983;DHT22;44771;49.982;8.560;2023-07-20T04:06:11;12.10;99.90
58983;DHT22;44771;49.982;8.560;2023-07-20T04:11:12;12.40;99.90
58983;DHT22;44771;49.982;8.560;2023-07-20T04:16:14;12.90;99.90
58983;DHT22;44771;49.982;8.560;2023-07-20T04:21:17;13.30;99.90
58983;DHT22;44771;49.982;8.560;2023-07-20T04:26:19;13.60;99.90
58983;DHT22;44771;49.982;8.560;2023-07-20T04:31:21;13.80;99.90
58983;DHT22;44771;49.982;8.560;2023-07-20T04:36:24;14.00;99.90
58983;DHT22;44771;49.982;8.560;2023-07-20T04:41:26;14.10;99.90
58983;DHT22;44771;49.982;8.560;2023-07-20T04:46:28;14.10;99.90
58983;DHT22;44771;49.982;8.560;2023-07-20T04:51:31;14.20;99.90
58983;DHT22;44771;49.982;8.560;2023-07-20T04:56:33;14.30;99.90
58983;DHT22;44771;49.982;8.560;2023-07-20T05:01:35;14.40;99.90
58983;DHT22;44771;49.982;8.560;2023-07-20T05:06:38;14.50;99.90
58983;DHT22;44771;49.982;8.560;2023-07-20T05:11:40;14.60;99.90
58983;DHT22;44771;49.982;8.560;2023-07-20T05:16:42;14.70;99.90
58983;DHT22;44771;49.982;8.560;2023-07-20T05:21:45;14.80;99.90
58983;DHT22;44771;49.982;8.560;2023-07-20T05:26:48;14.80;99.90
58983;DHT22;44771;49.982;8.560;2023-07-20T05:31:49;14.90;99.90
58983;DHT22;44771;49.982;8.560;2023-07-20T05:36:53;15.00;99.90
58983;DHT22;44771;49.982;8.560;2023-07-20T05:41:54;15.20;99.90
58983;DHT22;44771;49.982;8.560;2023-07-20T05:46:56;15.30;99.90
58983;DHT22;44771;49.982;8.560;2023-07-20T05:52:00;15.50;99.90
58983;DHT22;44771;49.982;8.560;2023-07-20T05:57:02;15.60;99.90
58983;DHT22;44771;49.982;8.560;2023-07-20T06:02:04;15.80;99.90
58983;DHT22;44771;49.982;8.560;2023-07-20T06:07:08;15.90;99.90
58983;DHT22;44771;49.982;8.560;2023-07-20T06:12:25;16.00;99.90
58983;DHT22;44771;49.982;8.560;2023-07-20T06:17:27;16.20;99.90
58983;DHT22;44771;49.982;8.560;2023-07-20T06:22:33;16.30;99.90
58983;DHT22;44771;49.982;8.560;2023-07-20T06:27:43;16.60;99.90
58983;DHT22;44771;49.982;8.560;2023-07-20T06:32:46;16.80;99.90
58983;DHT22;44771;49.982;8.560;2023-07-20T06:37:49;17.10;99.90
58983;DHT22;44771;49.982;8.560;2023-07-20T06:42:53;17.50;99.90
58983;DHT22;44771;49.982;8.560;2023-07-20T06:48:01;17.70;99.90
58983;DHT22;44771;49.982;8.560;2023-07-20T06:53:07;17.90;99.90
58983;DHT22;44771;49.982;8.560;2023-07-20T06:58:17;18.00;99.90
58983;DHT22;44771;49.982;8.560;2023-07-20T07:03:21;18.00;99.90
58983;DHT22;44771;49.982;8.560;2023-07-20T07:08:31;18.00;99.90
58983;DHT22;44771;49.982;8.560;2023-07-20T07:13:35;18.20;99.90
58983;DHT22;44771;49.982;8.560;2023-07-20T07:18:37;18.70;99.90
58983;DHT22;44771;49.982;8.560;2023-07-20T07:23:40;19.00;99.90
58983;DHT22;44771;49.982;8.560;2023-07-20T07:28:46;19.00;99.90
58983;DHT22;44771;49.982;8.560;2023-07-20T07:33:48;18.90;99.90
58983;DHT22;44771;49.982;8.560;2023-07-20T07:38:51;18.90;99.90
58983;DHT22;44771;49.982;8.560;2023-07-20T07:44:13;19.10;99.90
58983;DHT22;44771;49.982;8.560;2023-07-20T07:49:15;19.50;99.90
58983;DHT22;44771;49.982;8.560;2023-07-20T07:54:18;19.90;99.90
58983;DHT22;44771;49.982;8.560;2023-07-20T07:59:20;20.10;99.90
58983;DHT22;44771;49.982;8.560;2023-07-20T08:04:21;20.30;99.00
58983;DHT22;44771;49.982;8.560;2023-07-20T08:09:25;20.10;99.30
58983;DHT22;44771;49.982;8.560;2023-07-20T08:14:27;20.40;98.40
58983;DHT22;44771;49.982;8.560;2023-07-20T08:19:28;20.40;98.80
58983;DHT22;44771;49.982;8.560;2023-07-20T08:24:32;20.20;99.40
58983;DHT22;44771;49.982;8.560;2023-07-20T08:29:34;20.40;98.90
58983;DHT22;44771;49.982;8.560;2023-07-20T08:34:36;21.20;97.20
58983;DHT22;44771;49.982;8.560;2023-07-20T08:39:39;21.90;95.40
58983;DHT22;44771;49.982;8.560;2023-07-20T08:44:41;22.40;94.20
58983;DHT22;44771;49.982;8.560;2023-07-20T08:49:44;22.70;93.30
58983;DHT22;44771;49.982;8.560;2023-07-20T08:54:52;21.80;94.30
58983;DHT22;44771;49.982;8.560;2023-07-20T08:59:54;20.90;94.90
58983;DHT22;44771;49.982;8.560;2023-07-20T09:04:56;20.30;96.30
58983;DHT22;44771;49.982;8.560;2023-07-20T09:09:59;20.10;96.30
58983;DHT22;44771;49.982;8.560;2023-07-20T09:15:01;21.10;96.20
58983;DHT22;44771;49.982;8.560;2023-07-20T09:20:04;22.10;94.60
58983;DHT22;44771;49.982;8.560;2023-07-20T09:25:11;23.00;93.10
58983;DHT22;44771;49.982;8.560;2023-07-20T09:30:14;23.20;91.50
58983;DHT22;44771;49.982;8.560;2023-07-20T09:35:32;22.40;90.00
58983;DHT22;44771;49.982;8.560;2023-07-20T09:40:45;21.80;92.40
58983;DHT22;44771;49.982;8.560;2023-07-20T09:45:50;21.30;93.30
58983;DHT22;44771;49.982;8.560;2023-07-20T09:50:56;21.00;93.10
58983;DHT22;44771;49.982;8.560;2023-07-20T09:55:59;21.80;93.40
58983;DHT22;44771;49.982;8.560;2023-07-20T10:01:04;22.90;91.10
58983;DHT22;44771;49.982;8.560;2023-07-20T10:06:09;22.60;90.30
58983;DHT22;44771;49.982;8.560;2023-07-20T10:11:15;22.90;90.00
58983;DHT22;44771;49.982;8.560;2023-07-20T10:16:22;22.80;90.50
58983;DHT22;44771;49.982;8.560;2023-07-20T10:21:27;22.40;88.20
58983;DHT22;44771;49.982;8.560;2023-07-20T10:26:35;22.10;89.90
58983;DHT22;44771;49.982;8.560;2023-07-20T10:31:39;21.90;88.40
58983;DHT22;44771;49.982;8.560;2023-07-20T10:36:44;21.70;89.10
58983;DHT22;44771;49.982;8.560;2023-07-20T10:41:48;21.40;89.60
58983;DHT22;44771;49.982;8.560;2023-07-20T10:46:50;21.20;91.70
58983;DHT22;44771;49.982;8.560;2023-07-20T10:52:03;21.00;91.60
58983;DHT22;44771;49.982;8.560;2023-07-20T10:57:30;21.00;92.00
58983;DHT22;44771;49.982;8.560;2023-07-20T11:02:42;21.10;91.60
58983;DHT22;44771;49.982;8.560;2023-07-20T11:07:44;21.90;90.80
58983;DHT22;44771;49.982;8.560;2023-07-20T11:18:37;22.70;88.80
58983;DHT22;44771;49.982;8.560;2023-07-20T11:23:41;23.60;86.80
58983;DHT22;44771;49.982;8.560;2023-07-20T11:28:49;23.40;84.60
58983;DHT22;44771;49.982;8.560;2023-07-20T11:33:52;23.10;85.20
58983;DHT22;44771;49.982;8.560;2023-07-20T11:38:54;22.60;84.20
58983;DHT22;44771;49.982;8.560;2023-07-20T11:43:57;22.30;85.80
58983;DHT22;44771;49.982;8.560;2023-07-20T11:49:01;22.10;88.50
58983;DHT22;44771;49.982;8.560;2023-07-20T11:54:05;22.40;90.50
58983;DHT22;44771;49.982;8.560;2023-07-20T11:59:07;24.00;85.80
58983;DHT22;44771;49.982;8.560;2023-07-20T12:04:11;25.10;78.70
58983;DHT22;44771;49.982;8.560;2023-07-20T12:09:14;25.50;78.80
58983;DHT22;44771;49.982;8.560;2023-07-20T12:14:17;25.60;76.60
58983;DHT22;44771;49.982;8.560;2023-07-20T12:19:21;25.60;73.30
58983;DHT22;44771;49.982;8.560;2023-07-20T12:24:27;25.00;73.20
58983;DHT22;44771;49.982;8.560;2023-07-20T12:29:29;25.30;73.20
58983;DHT22;44771;49.982;8.560;2023-07-20T12:34:32;26.10;73.20
58983;DHT22;44771;49.982;8.560;2023-07-20T12:39:36;26.50;69.60
58983;DHT22;44771;49.982;8.560;2023-07-20T12:44:38;26.00;66.70
58983;DHT22;44771;49.982;8.560;2023-07-20T12:49:41;25.20;68.30
58983;DHT22;44771;49.982;8.560;2023-07-20T12:54:43;24.60;70.60
58983;DHT22;44771;49.982;8.560;2023-07-20T12:59:45;24.00;71.50
58983;DHT22;44771;49.982;8.560;2023-07-20T13:04:48;24.20;71.40
58983;DHT22;44771;49.982;8.560;2023-07-20T13:09:50;23.80;71.90
58983;DHT22;44771;49.982;8.560;2023-07-20T13:14:52;23.70;72.60
58983;DHT22;44771;49.982;8.560;2023-07-20T13:19:55;23.60;74.90
58983;DHT22;44771;49.982;8.560;2023-07-20T13:25:16;23.40;74.90
58983;DHT22;44771;49.982;8.560;2023-07-20T13:30:22;23.20;75.90
58983;DHT22;44771;49.982;8.560;2023-07-20T13:35:25;22.90;74.50
58983;DHT22;44771;49.982;8.560;2023-07-20T13:40:47;23.00;76.90
58983;DHT22;44771;49.982;8.560;2023-07-20T13:45:49;23.70;71.40
58983;DHT22;44771;49.982;8.560;2023-07-20T13:50:55;24.70;69.00
58983;DHT22;44771;49.982;8.560;2023-07-20T13:55:59;24.70;68.30
58983;DHT22;44771;49.982;8.560;2023-07-20T14:01:04;24.30;70.80
58983;DHT22;44771;49.982;8.560;2023-07-20T14:06:07;24.40;67.80
58983;DHT22;44771;49.982;8.560;2023-07-20T14:11:12;24.80;69.50
58983;DHT22;44771;49.982;8.560;2023-07-20T14:16:17;25.90;67.20
58983;DHT22;44771;49.982;8.560;2023-07-20T14:21:22;26.60;64.20
58983;DHT22;44771;49.982;8.560;2023-07-20T14:26:26;26.80;62.30
58983;DHT22;44771;49.982;8.560;2023-07-20T14:31:30;27.10;63.30
58983;DHT22;44771;49.982;8.560;2023-07-20T14:36:38;27.30;62.40
58983;DHT22;44771;49.982;8.560;2023-07-20T14:41:40;26.90;61.70
58983;DHT22;44771;49.982;8.560;2023-07-20T14:46:42;26.20;58.90
58983;DHT22;44771;49.982;8.560;2023-07-20T14:51:54;25.20;60.80
58983;DHT22;44771;49.982;8.560;2023-07-20T14:57:00;24.40;65.20
58983;DHT22;44771;49.982;8.560;2023-07-20T15:02:02;23.80;65.50
58983;DHT22;44771;49.982;8.560;2023-07-20T15:07:06;23.30;65.10
58983;DHT22;44771;49.982;8.560;2023-07-20T15:12:08;23.00;68.20
58983;DHT22;44771;49.982;8.560;2023-07-20T15:17:10;22.80;67.80
58983;DHT22;44771;49.982;8.560;2023-07-20T15:22:13;22.70;67.30
58983;DHT22;44771;49.982;8.560;2023-07-20T15:27:16;22.70;69.50
58983;DHT22;44771;49.982;8.560;2023-07-20T15:32:19;22.70;66.00
58983;DHT22;44771;49.982;8.560;2023-07-20T15:37:23;22.90;66.10
58983;DHT22;44771;49.982;8.560;2023-07-20T15:42:25;23.00;64.30
58983;DHT22;44771;49.982;8.560;2023-07-20T15:47:39;23.10;64.10
58983;DHT22;44771;49.982;8.560;2023-07-20T15:52:42;23.10;65.20
58983;DHT22;44771;49.982;8.560;2023-07-20T15:57:43;23.20;64.10
58983;DHT22;44771;49.982;8.560;2023-07-20T16:02:45;23.80;63.00
58983;DHT22;44771;49.982;8.560;2023-07-20T16:07:49;24.30;60.90
58983;DHT22;44771;49.982;8.560;2023-07-20T16:12:50;24.20;64.20
58983;DHT22;44771;49.982;8.560;2023-07-20T16:17:54;24.00;63.40
58983;DHT22;44771;49.982;8.560;2023-07-20T16:22:57;23.90;62.40
58983;DHT22;44771;49.982;8.560;2023-07-20T16:27:59;24.20;62.20
58983;DHT22;44771;49.982;8.560;2023-07-20T16:33:01;24.00;62.40
58983;DHT22;44771;49.982;8.560;2023-07-20T16:38:06;24.20;62.30
58983;DHT22;44771;49.982;8.560;2023-07-20T16:43:11;24.20;60.90
58983;DHT22;44771;49.982;8.560;2023-07-20T16:48:13;24.00;62.80
58983;DHT22;44771;49.982;8.560;2023-07-20T16:53:28;23.60;64.40
58983;DHT22;44771;49.982;8.560;2023-07-20T16:58:42;23.40;62.90
58983;DHT22;44771;49.982;8.560;2023-07-20T17:03:45;23.40;62.40
58983;DHT22;44771;49.982;8.560;2023-07-20T17:08:48;23.40;63.00
58983;DHT22;44771;49.982;8.560;2023-07-20T17:13:50;23.70;62.70
58983;DHT22;44771;49.982;8.560;2023-07-20T17:18:52;23.60;62.00
58983;DHT22;44771;49.982;8.560;2023-07-20T17:23:55;23.20;61.70
58983;DHT22;44771;49.982;8.560;2023-07-20T17:29:00;23.00;61.90
58983;DHT22;44771;49.982;8.560;2023-07-20T17:34:02;22.90;62.40
58983;DHT22;44771;49.982;8.560;2023-07-20T17:39:05;22.80;64.80
58983;DHT22;44771;49.982;8.560;2023-07-20T17:44:07;22.90;64.50
58983;DHT22;44771;49.982;8.560;2023-07-20T17:49:09;22.90;64.70
58983;DHT22;44771;49.982;8.560;2023-07-20T17:54:12;22.90;64.10
58983;DHT22;44771;49.982;8.560;2023-07-20T17:59:14;23.00;62.20
58983;DHT22;44771;49.982;8.560;2023-07-20T18:04:15;22.90;64.70
58983;DHT22;44771;49.982;8.560;2023-07-20T18:09:19;22.80;64.30
58983;DHT22;44771;49.982;8.560;2023-07-20T18:14:21;22.50;65.50
58983;DHT22;44771;49.982;8.560;2023-07-20T18:19:23;22.50;66.70
58983;DHT22;44771;49.982;8.560;2023-07-20T18:24:26;22.20;68.00
58983;DHT22;44771;49.982;8.560;2023-07-20T18:29:28;22.10;69.40
58983;DHT22;44771;49.982;8.560;2023-07-20T18:34:30;22.10;68.90
58983;DHT22;44771;49.982;8.560;2023-07-20T18:39:38;22.10;69.80
58983;DHT22;44771;49.982;8.560;2023-07-20T18:44:42;22.00;69.30
58983;DHT22;44771;49.982;8.560;2023-07-20T18:49:47;21.70;70.60
58983;DHT22;44771;49.982;8.560;2023-07-20T18:54:50;21.60;70.80
58983;DHT22;44771;49.982;8.560;2023-07-20T18:59:52;21.40;71.00
58983;DHT22;44771;49.982;8.560;2023-07-20T19:04:53;21.30;70.90
58983;DHT22;44771;49.982;8.560;2023-07-20T19:09:57;21.20;71.90
58983;DHT22;44771;49.982;8.560;2023-07-20T19:14:59;21.00;75.60
58983;DHT22;44771;49.982;8.560;2023-07-20T19:20:01;20.60;78.00
58983;DHT22;44771;49.982;8.560;2023-07-20T19:25:05;20.10;86.80
58983;DHT22;44771;49.982;8.560;2023-07-20T19:30:08;19.50;89.90
58983;DHT22;44771;49.982;8.560;2023-07-20T19:35:10;18.90;91.50
58983;DHT22;44771;49.982;8.560;2023-07-20T19:40:13;18.30;93.80
58983;DHT22;44771;49.982;8.560;2023-07-20T19:45:15;18.00;93.50
58983;DHT22;44771;49.982;8.560;2023-07-20T19:50:16;17.80;94.50
58983;DHT22;44771;49.982;8.560;2023-07-20T19:55:20;17.90;93.10
58983;DHT22;44771;49.982;8.560;2023-07-20T20:00:21;17.90;93.40
58983;DHT22;44771;49.982;8.560;2023-07-20T20:05:43;17.90;93.50
58983;DHT22;44771;49.982;8.560;2023-07-20T20:10:47;17.80;93.70
58983;DHT22;44771;49.982;8.560;2023-07-20T20:15:51;17.90;93.80
58983;DHT22;44771;49.982;8.560;2023-07-20T20:20:55;17.70;94.10
58983;DHT22;44771;49.982;8.560;2023-07-20T20:25:59;17.50;94.40
58983;DHT22;44771;49.982;8.560;2023-07-20T20:31:01;17.60;93.70
58983;DHT22;44771;49.982;8.560;2023-07-20T20:36:03;17.90;92.90
58983;DHT22;44771;49.982;8.560;2023-07-20T20:41:07;18.20;91.40
58983;DHT22;44771;49.982;8.560;2023-07-20T20:46:09;18.50;91.10
58983;DHT22;44771;49.982;8.560;2023-07-20T20:51:11;18.60;90.70
58983;DHT22;44771;49.982;8.560;2023-07-20T20:56:14;18.50;90.50
58983;DHT22;44771;49.982;8.560;2023-07-20T21:01:15;18.50;90.20
58983;DHT22;44771;49.982;8.560;2023-07-20T21:06:17;18.50;90.00
58983;DHT22;44771;49.982;8.560;2023-07-20T21:11:20;18.50;90.20
58983;DHT22;44771;49.982;8.560;2023-07-20T21:16:22;18.40;89.90
58983;DHT22;44771;49.982;8.560;2023-07-20T21:21:24;18.20;90.10
58983;DHT22;44771;49.982;8.560;2023-07-20T21:26:27;18.20;90.50
58983;DHT22;44771;49.982;8.560;2023-07-20T21:31:29;17.90;91.40
58983;DHT22;44771;49.982;8.560;2023-07-20T21:36:31;17.70;92.40
58983;DHT22;44771;49.982;8.560;2023-07-20T21:41:34;17.60;92.50
58983;DHT22;44771;49.982;8.560;2023-07-20T21:46:36;17.50;93.30
58983;DHT22;44771;49.982;8.560;2023-07-20T21:51:37;17.40;94.30
58983;DHT22;44771;49.982;8.560;2023-07-20T21:56:40;17.30;95.10
58983;DHT22;44771;49.982;8.560;2023-07-20T22:01:42;17.20;95.30
58983;DHT22;44771;49.982;8.560;2023-07-20T22:07:00;17.00;96.00
58983;DHT22;44771;49.982;8.560;2023-07-20T22:12:04;16.90;96.70
58983;DHT22;44771;49.982;8.560;2023-07-20T22:17:06;16.80;96.90
58983;DHT22;44771;49.982;8.560;2023-07-20T22:22:08;16.70;97.10
58983;DHT22;44771;49.982;8.560;2023-07-20T22:27:11;16.70;98.00
58983;DHT22;44771;49.982;8.560;2023-07-20T22:32:13;16.50;98.40
58983;DHT22;44771;49.982;8.560;2023-07-20T22:37:14;16.50;98.80
58983;DHT22;44771;49.982;8.560;2023-07-20T22:42:18;16.40;99.20
58983;DHT22;44771;49.982;8.560;2023-07-20T22:47:19;16.40;99.90
58983;DHT22;44771;49.982;8.560;2023-07-20T22:52:21;16.30;99.90
58983;DHT22;44771;49.982;8.560;2023-07-20T22:57:24;16.30;99.90
58983;DHT22;44771;49.982;8.560;2023-07-20T23:02:29;16.20;99.90
58983;DHT22;44771;49.982;8.560;2023-07-20T23:07:31;16.10;99.90
58983;DHT22;44771;49.982;8.560;2023-07-20T23:12:47;16.10;99.90
58983;DHT22;44771;49.982;8.560;2023-07-20T23:18:03;16.10;99.90
58983;DHT22;44771;49.982;8.560;2023-07-20T23:23:05;16.20;99.90
58983;DHT22;44771;49.982;8.560;2023-07-20T23:28:08;16.10;99.90
58983;DHT22;44771;49.982;8.560;2023-07-20T23:33:10;16.10;99.90
58983;DHT22;44771;49.982;8.560;2023-07-20T23:38:12;16.10;99.90
58983;DHT22;44771;49.982;8.560;2023-07-20T23:43:15;16.40;99.90
58983;DHT22;44771;49.982;8.560;2023-07-20T23:48:17;16.40;99.90
58983;DHT22;44771;49.982;8.560;2023-07-20T23:53:18;16.30;99.90
58983;DHT22;44771;49.982;8.560;2023-07-20T23:58:21;16.30;99.90
